sensor_id;sensor_type;location;lat;lon;timestamp;P1;durP1;ratioP1;P2;durP2;ratioP2
22814;SDS011;11574;51.058;13.712;2023-05-19T00:00:16;6.03;;;2.10;;
22814;SDS011;11574;51.058;13.712;2023-05-19T00:05:19;4.97;;;1.87;;
22814;SDS011;11574;51.058;13.712;2023-05-19T00:10:22;6.07;;;2.07;;
22814;SDS011;11574;51.058;13.712;2023-05-19T00:15:28;6.50;;;2.20;;
22814;SDS011;11574;51.058;13.712;2023-05-19T00:20:30;4.37;;;2.00;;
22814;SDS011;11574;51.058;13.712;2023-05-19T00:25:32;5.73;;;2.17;;
22814;SDS011;11574;51.058;13.712;2023-05-19T00:30:36;6.67;;;2.10;;
22814;SDS011;11574;51.058;13.712;2023-05-19T00:35:38;6.67;;;2.20;;
22814;SDS011;11574;51.058;13.712;2023-05-19T00:40:40;2.87;;;1.70;;
22814;SDS011;11574;51.058;13.712;2023-05-19T00:45:44;4.27;;;2.50;;
22814;SDS011;11574;51.058;13.712;2023-05-19T00:50:46;7.53;;;2.30;;
22814;SDS011;11574;51.058;13.712;2023-05-19T00:55:49;9.03;;;2.00;;
22814;SDS011;11574;51.058;13.712;2023-05-19T01:00:52;5.27;;;2.30;;
22814;SDS011;11574;51.058;13.712;2023-05-19T01:05:55;5.77;;;2.80;;
22814;SDS011;11574;51.058;13.712;2023-05-19T01:11:00;6.37;;;2.20;;
22814;SDS011;11574;51.058;13.712;2023-05-19T01:16:04;6.90;;;2.50;;
22814;SDS011;11574;51.058;13.712;2023-05-19T01:21:17;4.63;;;2.40;;
22814;SDS011;11574;51.058;13.712;2023-05-19T01:31:41;5.17;;;2.33;;
22814;SDS011;11574;51.058;13.712;2023-05-19T01:36:46;6.43;;;2.17;;
22814;SDS011;11574;51.058;13.712;2023-05-19T01:41:49;7.87;;;2.57;;
22814;SDS011;11574;51.058;13.712;2023-05-19T01:46:53;5.20;;;2.37;;
22814;SDS011;11574;51.058;13.712;2023-05-19T01:51:55;6.43;;;2.20;;
22814;SDS011;11574;51.058;13.712;2023-05-19T01:56:59;5.27;;;2.53;;
22814;SDS011;11574;51.058;13.712;2023-05-19T02:02:08;4.73;;;2.30;;
22814;SDS011;11574;51.058;13.712;2023-05-19T02:07:16;5.83;;;2.80;;
22814;SDS011;11574;51.058;13.712;2023-05-19T02:12:23;8.40;;;3.03;;
22814;SDS011;11574;51.058;13.712;2023-05-19T02:17:27;5.90;;;2.30;;
22814;SDS011;11574;51.058;13.712;2023-05-19T02:22:32;5.70;;;2.60;;
22814;SDS011;11574;51.058;13.712;2023-05-19T02:27:35;8.43;;;2.80;;
22814;SDS011;11574;51.058;13.712;2023-05-19T02:32:38;5.83;;;2.70;;
22814;SDS011;11574;51.058;13.712;2023-05-19T02:37:41;7.33;;;2.90;;
22814;SDS011;11574;51.058;13.712;2023-05-19T02:42:43;6.53;;;2.93;;
22814;SDS011;11574;51.058;13.712;2023-05-19T02:47:46;6.53;;;2.37;;
22814;SDS011;11574;51.058;13.712;2023-05-19T02:52:49;6.27;;;2.37;;
22814;SDS011;11574;51.058;13.712;2023-05-19T02:57:51;7.47;;;2.50;;
22814;SDS011;11574;51.058;13.712;2023-05-19T03:02:55;8.37;;;2.80;;
22814;SDS011;11574;51.058;13.712;2023-05-19T03:08:01;5.13;;;2.70;;
22814;SDS011;11574;51.058;13.712;2023-05-19T03:13:03;5.43;;;2.63;;
22814;SDS011;11574;51.058;13.712;2023-05-19T03:18:07;4.93;;;2.30;;
22814;SDS011;11574;51.058;13.712;2023-05-19T03:23:10;7.70;;;2.50;;
22814;SDS011;11574;51.058;13.712;2023-05-19T03:28:13;4.03;;;2.13;;
22814;SDS011;11574;51.058;13.712;2023-05-19T03:33:17;5.23;;;2.43;;
22814;SDS011;11574;51.058;13.712;2023-05-19T03:38:19;7.00;;;2.17;;
22814;SDS011;11574;51.058;13.712;2023-05-19T03:43:21;6.40;;;3.60;;
22814;SDS011;11574;51.058;13.712;2023-05-19T03:48:25;8.57;;;2.50;;
22814;SDS011;11574;51.058;13.712;2023-05-19T03:53:28;6.70;;;2.60;;
22814;SDS011;11574;51.058;13.712;2023-05-19T03:58:30;5.70;;;2.80;;
22814;SDS011;11574;51.058;13.712;2023-05-19T04:03:33;4.37;;;2.30;;
22814;SDS011;11574;51.058;13.712;2023-05-19T04:08:36;3.33;;;2.03;;
22814;SDS011;11574;51.058;13.712;2023-05-19T04:13:38;5.17;;;2.33;;
22814;SDS011;11574;51.058;13.712;2023-05-19T04:18:41;6.93;;;3.03;;
22814;SDS011;11574;51.058;13.712;2023-05-19T04:23:45;4.20;;;2.23;;
22814;SDS011;11574;51.058;13.712;2023-05-19T04:28:47;7.70;;;2.30;;
22814;SDS011;11574;51.058;13.712;2023-05-19T04:33:50;4.13;;;2.47;;
22814;SDS011;11574;51.058;13.712;2023-05-19T04:38:53;6.67;;;2.77;;
22814;SDS011;11574;51.058;13.712;2023-05-19T04:44:01;5.43;;;2.37;;
22814;SDS011;11574;51.058;13.712;2023-05-19T04:49:05;6.17;;;2.73;;
22814;SDS011;11574;51.058;13.712;2023-05-19T04:54:07;7.63;;;2.57;;
22814;SDS011;11574;51.058;13.712;2023-05-19T04:59:09;5.10;;;2.93;;
22814;SDS011;11574;51.058;13.712;2023-05-19T05:04:13;5.87;;;2.57;;
22814;SDS011;11574;51.058;13.712;2023-05-19T05:09:15;4.40;;;2.57;;
22814;SDS011;11574;51.058;13.712;2023-05-19T05:14:19;7.40;;;2.63;;
22814;SDS011;11574;51.058;13.712;2023-05-19T05:19:22;4.87;;;2.20;;
22814;SDS011;11574;51.058;13.712;2023-05-19T05:24:25;7.10;;;2.53;;
22814;SDS011;11574;51.058;13.712;2023-05-19T05:29:27;5.73;;;2.50;;
22814;SDS011;11574;51.058;13.712;2023-05-19T05:34:31;6.33;;;2.70;;
22814;SDS011;11574;51.058;13.712;2023-05-19T05:39:34;8.63;;;2.77;;
22814;SDS011;11574;51.058;13.712;2023-05-19T05:44:36;7.87;;;2.67;;
22814;SDS011;11574;51.058;13.712;2023-05-19T05:49:40;8.07;;;2.60;;
22814;SDS011;11574;51.058;13.712;2023-05-19T05:54:43;4.90;;;2.47;;
22814;SDS011;11574;51.058;13.712;2023-05-19T05:59:45;4.67;;;2.80;;
22814;SDS011;11574;51.058;13.712;2023-05-19T06:04:49;7.37;;;2.60;;
22814;SDS011;11574;51.058;13.712;2023-05-19T06:09:53;7.37;;;3.17;;
22814;SDS011;11574;51.058;13.712;2023-05-19T06:14:55;8.60;;;2.77;;
22814;SDS011;11574;51.058;13.712;2023-05-19T06:19:59;5.97;;;3.00;;
22814;SDS011;11574;51.058;13.712;2023-05-19T06:25:09;8.73;;;2.40;;
22814;SDS011;11574;51.058;13.712;2023-05-19T06:30:12;7.03;;;2.53;;
22814;SDS011;11574;51.058;13.712;2023-05-19T06:35:15;4.03;;;2.40;;
22814;SDS011;11574;51.058;13.712;2023-05-19T06:40:18;6.67;;;2.03;;
22814;SDS011;11574;51.058;13.712;2023-05-19T06:45:20;4.47;;;2.30;;
22814;SDS011;11574;51.058;13.712;2023-05-19T06:50:24;7.90;;;2.53;;
22814;SDS011;11574;51.058;13.712;2023-05-19T06:55:26;3.85;;;2.60;;
22814;SDS011;11574;51.058;13.712;2023-05-19T07:00:28;4.30;;;2.57;;
22814;SDS011;11574;51.058;13.712;2023-05-19T07:05:32;8.73;;;2.90;;
22814;SDS011;11574;51.058;13.712;2023-05-19T07:10:34;3.80;;;2.63;;
22814;SDS011;11574;51.058;13.712;2023-05-19T07:15:36;5.57;;;2.80;;
22814;SDS011;11574;51.058;13.712;2023-05-19T07:20:40;5.63;;;3.03;;
22814;SDS011;11574;51.058;13.712;2023-05-19T07:25:42;5.90;;;3.07;;
22814;SDS011;11574;51.058;13.712;2023-05-19T07:30:44;7.47;;;2.50;;
22814;SDS011;11574;51.058;13.712;2023-05-19T07:35:48;4.60;;;2.83;;
22814;SDS011;11574;51.058;13.712;2023-05-19T07:40:50;7.70;;;2.87;;
22814;SDS011;11574;51.058;13.712;2023-05-19T07:45:53;6.83;;;2.77;;
22814;SDS011;11574;51.058;13.712;2023-05-19T07:50:57;4.10;;;2.73;;
22814;SDS011;11574;51.058;13.712;2023-05-19T07:55:59;6.17;;;2.70;;
22814;SDS011;11574;51.058;13.712;2023-05-19T08:01:02;6.00;;;2.50;;
22814;SDS011;11574;51.058;13.712;2023-05-19T08:06:06;3.45;;;2.28;;
22814;SDS011;11574;51.058;13.712;2023-05-19T08:11:08;4.85;;;2.20;;
22814;SDS011;11574;51.058;13.712;2023-05-19T08:16:11;3.90;;;2.20;;
22814;SDS011;11574;51.058;13.712;2023-05-19T08:21:14;5.93;;;2.30;;
22814;SDS011;11574;51.058;13.712;2023-05-19T08:26:16;6.33;;;2.57;;
22814;SDS011;11574;51.058;13.712;2023-05-19T08:31:19;5.93;;;2.50;;
22814;SDS011;11574;51.058;13.712;2023-05-19T08:36:23;5.07;;;2.53;;
22814;SDS011;11574;51.058;13.712;2023-05-19T08:41:25;5.30;;;2.37;;
22814;SDS011;11574;51.058;13.712;2023-05-19T08:46:27;4.77;;;2.40;;
22814;SDS011;11574;51.058;13.712;2023-05-19T08:51:32;6.03;;;2.60;;
22814;SDS011;11574;51.058;13.712;2023-05-19T08:56:37;7.67;;;2.67;;
22814;SDS011;11574;51.058;13.712;2023-05-19T09:01:40;9.37;;;2.50;;
22814;SDS011;11574;51.058;13.712;2023-05-19T09:06:44;5.43;;;2.50;;
22814;SDS011;11574;51.058;13.712;2023-05-19T09:11:47;8.27;;;2.77;;
22814;SDS011;11574;51.058;13.712;2023-05-19T09:16:49;4.33;;;2.63;;
22814;SDS011;11574;51.058;13.712;2023-05-19T09:21:58;6.50;;;2.80;;
22814;SDS011;11574;51.058;13.712;2023-05-19T09:27:02;3.77;;;2.53;;
22814;SDS011;11574;51.058;13.712;2023-05-19T09:32:04;5.00;;;2.60;;
22814;SDS011;11574;51.058;13.712;2023-05-19T09:37:08;4.53;;;2.50;;
22814;SDS011;11574;51.058;13.712;2023-05-19T09:42:13;4.80;;;2.33;;
22814;SDS011;11574;51.058;13.712;2023-05-19T09:47:16;6.93;;;2.60;;
22814;SDS011;11574;51.058;13.712;2023-05-19T09:52:19;5.97;;;2.47;;
22814;SDS011;11574;51.058;13.712;2023-05-19T09:57:25;4.90;;;2.60;;
22814;SDS011;11574;51.058;13.712;2023-05-19T10:02:34;5.43;;;2.83;;
22814;SDS011;11574;51.058;13.712;2023-05-19T10:07:42;7.27;;;2.80;;
22814;SDS011;11574;51.058;13.712;2023-05-19T10:12:50;4.40;;;2.57;;
22814;SDS011;11574;51.058;13.712;2023-05-19T10:17:56;3.80;;;2.50;;
22814;SDS011;11574;51.058;13.712;2023-05-19T10:23:01;5.43;;;2.97;;
22814;SDS011;11574;51.058;13.712;2023-05-19T10:28:04;6.17;;;2.93;;
22814;SDS011;11574;51.058;13.712;2023-05-19T10:33:09;5.53;;;2.47;;
22814;SDS011;11574;51.058;13.712;2023-05-19T10:38:18;4.53;;;2.30;;
22814;SDS011;11574;51.058;13.712;2023-05-19T10:43:24;3.60;;;2.23;;
22814;SDS011;11574;51.058;13.712;2023-05-19T10:48:43;4.13;;;2.10;;
22814;SDS011;11574;51.058;13.712;2023-05-19T10:53:49;4.37;;;2.27;;
22814;SDS011;11574;51.058;13.712;2023-05-19T10:58:53;5.73;;;2.27;;
22814;SDS011;11574;51.058;13.712;2023-05-19T11:03:55;4.23;;;2.40;;
22814;SDS011;11574;51.058;13.712;2023-05-19T11:09:00;5.17;;;2.63;;
22814;SDS011;11574;51.058;13.712;2023-05-19T11:14:04;4.10;;;2.43;;
22814;SDS011;11574;51.058;13.712;2023-05-19T11:19:06;5.13;;;2.50;;
22814;SDS011;11574;51.058;13.712;2023-05-19T11:24:10;5.70;;;2.10;;
22814;SDS011;11574;51.058;13.712;2023-05-19T11:29:33;6.00;;;2.33;;
22814;SDS011;11574;51.058;13.712;2023-05-19T11:34:36;4.13;;;1.97;;
22814;SDS011;11574;51.058;13.712;2023-05-19T11:39:40;6.33;;;2.47;;
22814;SDS011;11574;51.058;13.712;2023-05-19T11:44:43;8.87;;;2.40;;
22814;SDS011;11574;51.058;13.712;2023-05-19T11:49:46;6.23;;;1.93;;
22814;SDS011;11574;51.058;13.712;2023-05-19T11:54:50;4.30;;;2.50;;
22814;SDS011;11574;51.058;13.712;2023-05-19T11:59:52;5.83;;;2.00;;
22814;SDS011;11574;51.058;13.712;2023-05-19T12:04:55;4.17;;;2.20;;
22814;SDS011;11574;51.058;13.712;2023-05-19T12:09:59;6.73;;;2.30;;
22814;SDS011;11574;51.058;13.712;2023-05-19T12:15:02;5.20;;;2.50;;
22814;SDS011;11574;51.058;13.712;2023-05-19T12:20:04;3.60;;;1.90;;
22814;SDS011;11574;51.058;13.712;2023-05-19T12:25:08;3.40;;;2.30;;
22814;SDS011;11574;51.058;13.712;2023-05-19T12:30:12;5.37;;;2.43;;
22814;SDS011;11574;51.058;13.712;2023-05-19T12:35:14;5.87;;;2.40;;
22814;SDS011;11574;51.058;13.712;2023-05-19T12:40:18;3.93;;;2.00;;
22814;SDS011;11574;51.058;13.712;2023-05-19T12:45:20;7.57;;;2.60;;
22814;SDS011;11574;51.058;13.712;2023-05-19T12:50:28;4.17;;;2.00;;
22814;SDS011;11574;51.058;13.712;2023-05-19T12:55:37;5.47;;;2.77;;
22814;SDS011;11574;51.058;13.712;2023-05-19T13:00:42;3.70;;;2.30;;
22814;SDS011;11574;51.058;13.712;2023-05-19T13:05:47;5.43;;;2.43;;
22814;SDS011;11574;51.058;13.712;2023-05-19T13:10:50;3.67;;;2.50;;
22814;SDS011;11574;51.058;13.712;2023-05-19T13:15:53;4.70;;;3.03;;
22814;SDS011;11574;51.058;13.712;2023-05-19T13:20:56;6.60;;;2.80;;
22814;SDS011;11574;51.058;13.712;2023-05-19T13:25:59;4.17;;;2.83;;
22814;SDS011;11574;51.058;13.712;2023-05-19T13:31:03;7.47;;;3.00;;
22814;SDS011;11574;51.058;13.712;2023-05-19T13:36:06;4.93;;;2.67;;
22814;SDS011;11574;51.058;13.712;2023-05-19T13:41:13;4.70;;;3.10;;
22814;SDS011;11574;51.058;13.712;2023-05-19T13:46:15;7.77;;;3.40;;
22814;SDS011;11574;51.058;13.712;2023-05-19T13:51:17;6.40;;;3.30;;
22814;SDS011;11574;51.058;13.712;2023-05-19T13:56:21;6.43;;;3.00;;
22814;SDS011;11574;51.058;13.712;2023-05-19T14:01:23;6.23;;;2.80;;
22814;SDS011;11574;51.058;13.712;2023-05-19T14:06:26;3.63;;;2.83;;
22814;SDS011;11574;51.058;13.712;2023-05-19T14:11:29;4.20;;;2.80;;
22814;SDS011;11574;51.058;13.712;2023-05-19T14:16:32;6.37;;;3.17;;
22814;SDS011;11574;51.058;13.712;2023-05-19T14:21:34;8.20;;;3.33;;
22814;SDS011;11574;51.058;13.712;2023-05-19T14:26:38;6.47;;;3.37;;
22814;SDS011;11574;51.058;13.712;2023-05-19T14:31:40;6.00;;;3.20;;
22814;SDS011;11574;51.058;13.712;2023-05-19T14:36:43;5.27;;;3.37;;
22814;SDS011;11574;51.058;13.712;2023-05-19T14:41:46;6.30;;;3.73;;
22814;SDS011;11574;51.058;13.712;2023-05-19T14:46:50;6.67;;;2.87;;
22814;SDS011;11574;51.058;13.712;2023-05-19T14:51:53;6.13;;;3.43;;
22814;SDS011;11574;51.058;13.712;2023-05-19T14:56:57;5.13;;;3.63;;
22814;SDS011;11574;51.058;13.712;2023-05-19T15:02:00;5.67;;;3.10;;
22814;SDS011;11574;51.058;13.712;2023-05-19T15:07:03;5.33;;;2.77;;
22814;SDS011;11574;51.058;13.712;2023-05-19T15:12:07;7.20;;;3.43;;
22814;SDS011;11574;51.058;13.712;2023-05-19T15:17:10;8.17;;;3.50;;
22814;SDS011;11574;51.058;13.712;2023-05-19T15:22:12;7.13;;;3.57;;
22814;SDS011;11574;51.058;13.712;2023-05-19T15:27:16;5.50;;;3.50;;
22814;SDS011;11574;51.058;13.712;2023-05-19T15:32:18;6.70;;;3.90;;
22814;SDS011;11574;51.058;13.712;2023-05-19T15:37:20;8.27;;;3.77;;
22814;SDS011;11574;51.058;13.712;2023-05-19T15:42:24;12.60;;;4.20;;
22814;SDS011;11574;51.058;13.712;2023-05-19T15:47:26;12.07;;;3.33;;
22814;SDS011;11574;51.058;13.712;2023-05-19T15:52:28;5.97;;;3.43;;
22814;SDS011;11574;51.058;13.712;2023-05-19T15:57:32;7.27;;;3.87;;
22814;SDS011;11574;51.058;13.712;2023-05-19T16:02:34;6.80;;;3.60;;
22814;SDS011;11574;51.058;13.712;2023-05-19T16:07:37;8.63;;;4.30;;
22814;SDS011;11574;51.058;13.712;2023-05-19T16:12:42;6.47;;;3.73;;
22814;SDS011;11574;51.058;13.712;2023-05-19T16:17:44;7.63;;;4.07;;
22814;SDS011;11574;51.058;13.712;2023-05-19T16:22:46;7.43;;;4.10;;
22814;SDS011;11574;51.058;13.712;2023-05-19T16:27:50;5.90;;;3.50;;
22814;SDS011;11574;51.058;13.712;2023-05-19T16:32:52;6.93;;;3.50;;
22814;SDS011;11574;51.058;13.712;2023-05-19T16:37:55;7.40;;;4.03;;
22814;SDS011;11574;51.058;13.712;2023-05-19T16:42:58;7.37;;;4.10;;
22814;SDS011;11574;51.058;13.712;2023-05-19T16:48:01;4.80;;;3.23;;
22814;SDS011;11574;51.058;13.712;2023-05-19T16:53:03;6.97;;;3.60;;
22814;SDS011;11574;51.058;13.712;2023-05-19T16:58:06;6.83;;;3.60;;
22814;SDS011;11574;51.058;13.712;2023-05-19T17:03:10;6.27;;;3.63;;
22814;SDS011;11574;51.058;13.712;2023-05-19T17:08:12;4.30;;;3.10;;
22814;SDS011;11574;51.058;13.712;2023-05-19T17:13:16;5.37;;;3.47;;
22814;SDS011;11574;51.058;13.712;2023-05-19T17:18:19;4.63;;;3.50;;
22814;SDS011;11574;51.058;13.712;2023-05-19T17:23:21;5.47;;;3.30;;
22814;SDS011;11574;51.058;13.712;2023-05-19T17:28:25;6.10;;;3.50;;
22814;SDS011;11574;51.058;13.712;2023-05-19T17:33:27;6.43;;;3.80;;
22814;SDS011;11574;51.058;13.712;2023-05-19T17:38:29;5.17;;;3.13;;
22814;SDS011;11574;51.058;13.712;2023-05-19T17:43:33;7.83;;;3.83;;
22814;SDS011;11574;51.058;13.712;2023-05-19T17:48:35;7.40;;;3.40;;
22814;SDS011;11574;51.058;13.712;2023-05-19T17:53:38;7.00;;;3.43;;
22814;SDS011;11574;51.058;13.712;2023-05-19T17:58:43;6.73;;;4.00;;
22814;SDS011;11574;51.058;13.712;2023-05-19T18:03:45;12.03;;;3.93;;
22814;SDS011;11574;51.058;13.712;2023-05-19T18:08:49;7.57;;;3.67;;
22814;SDS011;11574;51.058;13.712;2023-05-19T18:13:52;6.47;;;3.90;;
22814;SDS011;11574;51.058;13.712;2023-05-19T18:18:55;7.33;;;4.27;;
22814;SDS011;11574;51.058;13.712;2023-05-19T18:23:57;4.23;;;3.40;;
22814;SDS011;11574;51.058;13.712;2023-05-19T18:29:03;8.97;;;4.30;;
22814;SDS011;11574;51.058;13.712;2023-05-19T18:34:05;8.97;;;4.47;;
22814;SDS011;11574;51.058;13.712;2023-05-19T18:39:07;6.97;;;4.40;;
22814;SDS011;11574;51.058;13.712;2023-05-19T18:44:11;7.77;;;4.40;;
22814;SDS011;11574;51.058;13.712;2023-05-19T18:49:13;6.17;;;4.77;;
22814;SDS011;11574;51.058;13.712;2023-05-19T18:54:16;8.47;;;4.70;;
22814;SDS011;11574;51.058;13.712;2023-05-19T18:59:20;7.90;;;4.80;;
22814;SDS011;11574;51.058;13.712;2023-05-19T19:04:24;6.63;;;4.80;;
22814;SDS011;11574;51.058;13.712;2023-05-19T19:09:26;8.77;;;5.03;;
22814;SDS011;11574;51.058;13.712;2023-05-19T19:14:30;8.30;;;5.97;;
22814;SDS011;11574;51.058;13.712;2023-05-19T19:19:32;9.07;;;5.63;;
22814;SDS011;11574;51.058;13.712;2023-05-19T19:24:34;11.10;;;6.13;;
22814;SDS011;11574;51.058;13.712;2023-05-19T19:29:38;11.00;;;6.33;;
22814;SDS011;11574;51.058;13.712;2023-05-19T19:34:40;11.07;;;5.97;;
22814;SDS011;11574;51.058;13.712;2023-05-19T19:39:42;10.27;;;6.47;;
22814;SDS011;11574;51.058;13.712;2023-05-19T19:44:47;9.37;;;5.90;;
22814;SDS011;11574;51.058;13.712;2023-05-19T19:49:49;11.60;;;7.20;;
22814;SDS011;11574;51.058;13.712;2023-05-19T19:54:51;17.87;;;7.87;;
22814;SDS011;11574;51.058;13.712;2023-05-19T19:59:54;13.40;;;7.43;;
22814;SDS011;11574;51.058;13.712;2023-05-19T20:05:03;14.23;;;7.67;;
22814;SDS011;11574;51.058;13.712;2023-05-19T20:10:06;14.20;;;7.80;;
22814;SDS011;11574;51.058;13.712;2023-05-19T20:15:10;18.37;;;8.53;;
22814;SDS011;11574;51.058;13.712;2023-05-19T20:20:12;13.97;;;8.00;;
22814;SDS011;11574;51.058;13.712;2023-05-19T20:25:15;12.70;;;8.83;;
22814;SDS011;11574;51.058;13.712;2023-05-19T20:30:18;15.57;;;8.63;;
22814;SDS011;11574;51.058;13.712;2023-05-19T20:35:21;13.30;;;8.30;;
22814;SDS011;11574;51.058;13.712;2023-05-19T20:40:23;14.30;;;8.63;;
22814;SDS011;11574;51.058;13.712;2023-05-19T20:45:26;13.70;;;8.50;;
22814;SDS011;11574;51.058;13.712;2023-05-19T20:50:29;16.07;;;9.10;;
22814;SDS011;11574;51.058;13.712;2023-05-19T20:55:31;16.80;;;9.40;;
22814;SDS011;11574;51.058;13.712;2023-05-19T21:00:36;12.00;;;8.00;;
22814;SDS011;11574;51.058;13.712;2023-05-19T21:05:38;14.77;;;8.93;;
22814;SDS011;11574;51.058;13.712;2023-05-19T21:10:40;12.37;;;8.30;;
22814;SDS011;11574;51.058;13.712;2023-05-19T21:15:44;13.87;;;9.37;;
22814;SDS011;11574;51.058;13.712;2023-05-19T21:20:46;11.63;;;8.60;;
22814;SDS011;11574;51.058;13.712;2023-05-19T21:25:48;15.03;;;8.10;;
22814;SDS011;11574;51.058;13.712;2023-05-19T21:30:52;13.40;;;8.63;;
22814;SDS011;11574;51.058;13.712;2023-05-19T21:35:54;15.63;;;9.43;;
22814;SDS011;11574;51.058;13.712;2023-05-19T21:40:58;16.03;;;9.07;;
22814;SDS011;11574;51.058;13.712;2023-05-19T21:46:01;11.70;;;8.70;;
22814;SDS011;11574;51.058;13.712;2023-05-19T21:51:03;12.77;;;8.77;;
22814;SDS011;11574;51.058;13.712;2023-05-19T21:56:06;12.80;;;8.53;;
22814;SDS011;11574;51.058;13.712;2023-05-19T22:01:09;13.03;;;8.57;;
22814;SDS011;11574;51.058;13.712;2023-05-19T22:06:13;12.33;;;8.47;;
22814;SDS011;11574;51.058;13.712;2023-05-19T22:11:15;13.80;;;8.90;;
22814;SDS011;11574;51.058;13.712;2023-05-19T22:16:19;14.67;;;9.57;;
22814;SDS011;11574;51.058;13.712;2023-05-19T22:21:21;13.83;;;9.73;;
22814;SDS011;11574;51.058;13.712;2023-05-19T22:26:23;14.37;;;8.83;;
22814;SDS011;11574;51.058;13.712;2023-05-19T22:31:27;14.23;;;9.43;;
22814;SDS011;11574;51.058;13.712;2023-05-19T22:36:29;15.57;;;9.63;;
22814;SDS011;11574;51.058;13.712;2023-05-19T22:41:32;13.77;;;9.33;;
22814;SDS011;11574;51.058;13.712;2023-05-19T22:46:35;13.40;;;9.73;;
22814;SDS011;11574;51.058;13.712;2023-05-19T22:51:37;11.80;;;8.77;;
22814;SDS011;11574;51.058;13.712;2023-05-19T22:56:40;13.53;;;9.40;;
22814;SDS011;11574;51.058;13.712;2023-05-19T23:01:45;15.73;;;10.07;;
22814;SDS011;11574;51.058;13.712;2023-05-19T23:06:47;13.20;;;9.17;;
22814;SDS011;11574;51.058;13.712;2023-05-19T23:11:50;14.60;;;10.07;;
22814;SDS011;11574;51.058;13.712;2023-05-19T23:16:53;13.77;;;10.00;;
22814;SDS011;11574;51.058;13.712;2023-05-19T23:21:56;13.50;;;9.97;;
22814;SDS011;11574;51.058;13.712;2023-05-19T23:26:58;14.07;;;9.67;;
22814;SDS011;11574;51.058;13.712;2023-05-19T23:32:01;18.40;;;10.90;;
22814;SDS011;11574;51.058;13.712;2023-05-19T23:37:04;18.83;;;12.20;;
22814;SDS011;11574;51.058;13.712;2023-05-19T23:42:06;19.17;;;12.13;;
22814;SDS011;11574;51.058;13.712;2023-05-19T23:47:10;18.73;;;12.27;;
22814;SDS011;11574;51.058;13.712;2023-05-19T23:52:12;17.00;;;12.70;;
22814;SDS011;11574;51.058;13.712;2023-05-19T23:57:14;18.50;;;13.30;;
